Time;durP1;ratioP1;P1;durP2;ratioP2;P2;SDS_P1;SDS_P2;PMS_P1;PMS_P2;Temp;Humidity;BMP_temperature;BMP_pressure;BME280_temperature;BME280_humidity;BME280_pressure;Samples;Min_cycle;Max_cycle;Signal;HPM_P1;HPM_P2
2023/05/04 00:01:00;;;;;;;1.00;1.00;;;;;;;11.97;86.42;97301.50;5004575;28;20042;-63
2023/05/04 00:03:26;;;;;;;1.00;1.00;;;;;;;11.62;85.22;97234.28;5003334;28;20046;-61
2023/05/04 00:05:53;;;;;;;1.00;1.00;;;;;;;12.06;85.34;97310.38;5004559;28;20505;-61
2023/05/04 00:08:20;;;;;;;1.00;1.00;;;;;;;12.00;85.20;97300.75;5003137;28;20509;-61
2023/05/04 00:10:46;;;;;;;1.00;1.00;;;;;;;12.20;85.63;97310.59;5004815;28;20129;-60
2023/05/04 00:13:13;;;;;;;0.90;0.90;;;;;;;12.04;86.41;97282.19;5004544;28;21168;-60
2023/05/04 00:15:40;;;;;;;1.00;1.00;;;;;;;11.60;87.24;97220.00;5004556;28;20049;-61
2023/05/04 00:18:07;;;;;;;1.00;1.00;;;;;;;12.29;87.04;97304.75;5005050;28;20120;-63
2023/05/04 00:20:34;;;;;;;0.90;0.90;;;;;;;12.08;85.94;97283.00;5004200;28;20065;-63
2023/05/04 00:23:00;;;;;;;0.90;0.90;;;;;;;12.17;86.24;97303.00;5003824;28;20058;-61
2023/05/04 00:25:27;;;;;;;0.90;0.90;;;;;;;11.71;85.58;97215.44;5004744;28;20054;-60
2023/05/04 00:27:53;;;;;;;1.00;1.00;;;;;;;12.15;86.22;97274.81;5004064;28;20061;-62
2023/05/04 00:30:20;;;;;;;1.00;1.00;;;;;;;12.15;86.41;97285.91;5004448;28;20111;-60
2023/05/04 00:32:47;;;;;;;1.10;1.10;;;;;;;11.26;88.17;97176.63;5003987;28;20054;-61
2023/05/04 00:35:13;;;;;;;1.00;1.00;;;;;;;12.02;88.60;97290.88;5004453;28;20053;-60
2023/05/04 00:37:42;;;;;;;0.90;0.90;;;;;;;11.65;88.89;97233.59;5004492;28;20127;-61
2023/05/04 00:40:09;;;;;;;1.00;1.00;;;;;;;12.07;88.53;97298.09;4990985;28;20060;-62
2023/05/04 00:42:36;;;;;;;1.00;1.00;;;;;;;11.82;88.01;97249.72;5027461;28;20099;-60
2023/05/04 00:45:02;;;;;;;0.93;0.93;;;;;;;12.13;87.71;97294.63;5027772;28;20489;-60
2023/05/04 00:47:29;;;;;;;1.00;1.00;;;;;;;11.59;86.94;97212.84;5027704;28;20483;-63
2023/05/04 00:49:56;;;;;;;0.90;0.90;;;;;;;12.19;86.91;97301.44;5027800;28;20354;-60
2023/05/04 00:52:23;;;;;;;1.00;1.00;;;;;;;11.83;86.75;97248.53;5026227;28;20085;-62
2023/05/04 00:54:51;;;;;;;0.90;0.90;;;;;;;11.62;86.48;97234.28;5027415;28;20552;-62
2023/05/04 00:57:18;;;;;;;1.00;1.00;;;;;;;12.04;87.07;97287.72;5027489;28;20108;-61
2023/05/04 00:59:46;;;;;;;0.90;0.90;;;;;;;12.01;87.98;97288.47;5027613;28;20204;-62
2023/05/04 01:02:13;;;;;;;1.00;1.00;;;;;;;11.74;87.76;97236.91;5027326;28;20065;-64
2023/05/04 01:04:40;;;;;;;0.90;0.90;;;;;;;12.08;87.47;97299.69;5027827;28;20053;-60
2023/05/04 01:07:25;;;;;;;1.13;1.13;;;;;;;12.17;85.61;97278.00;5026412;28;20077;-62
2023/05/04 01:10:07;;;;;;;0.90;0.90;;;;;;;11.36;86.23;97176.03;5001276;28;20064;-60
2023/05/04 01:12:39;;;;;;;1.00;1.00;;;;;;;11.94;87.40;97280.03;5008143;28;20085;-59
2023/05/04 01:15:08;;;;;;;0.98;0.98;;;;;;;11.97;87.82;97295.94;5008076;28;20058;-59
2023/05/04 01:17:35;;;;;;;1.00;1.00;;;;;;;12.06;87.47;97271.50;5006219;28;20054;-62
2023/05/04 01:20:02;;;;;;;0.90;0.90;;;;;;;12.01;88.84;97274.59;5006431;28;20117;-59
2023/05/04 01:22:30;;;;;;;1.00;1.00;;;;;;;12.01;88.61;97271.81;5007533;28;20643;-60
2023/05/04 01:24:56;;;;;;;0.93;0.93;;;;;;;11.99;87.40;97261.09;5007702;28;20107;-60
2023/05/04 01:27:38;;;;;;;1.00;1.00;;;;;;;11.82;88.28;97255.25;5007459;28;20055;-60
2023/05/04 01:30:14;;;;;;;0.93;0.93;;;;;;;11.80;89.05;97252.06;5007622;28;20096;-61
2023/05/04 01:32:41;;;;;;;1.00;1.00;;;;;;;9.51;88.49;97141.56;5005870;28;20061;-59
2023/05/04 01:35:10;;;;;;;1.00;1.00;;;;;;;11.77;88.32;97258.34;5007128;28;20061;-59
2023/05/04 01:37:37;;;;;;;1.00;1.00;;;;;;;11.68;88.92;97249.50;5005651;28;20512;-62
2023/05/04 01:40:04;;;;;;;0.90;0.90;;;;;;;11.66;88.80;97257.38;5007168;28;20053;-59
2023/05/04 01:42:31;;;;;;;0.80;0.80;;;;;;;11.42;88.70;97207.81;5006943;28;20351;-60
2023/05/04 01:44:58;;;;;;;0.90;0.90;;;;;;;11.65;88.91;97250.25;5006919;28;20049;-60
2023/05/04 01:47:24;;;;;;;1.00;1.00;;;;;;;11.70;87.12;97252.69;5007041;28;20136;-61
2023/05/04 01:49:51;;;;;;;0.90;0.90;;;;;;;11.62;86.89;97256.47;5005295;28;20060;-59
2023/05/04 01:52:18;;;;;;;0.90;0.90;;;;;;;11.57;87.46;97259.59;5006649;28;20049;-60
2023/05/04 01:54:44;;;;;;;0.90;0.90;;;;;;;11.49;87.95;97252.31;5006425;28;20053;-60
2023/05/04 01:57:11;;;;;;;0.80;0.80;;;;;;;11.43;88.90;97259.34;5006845;28;20053;-60
2023/05/04 01:59:38;;;;;;;0.90;0.90;;;;;;;11.47;88.49;97254.66;5005277;28;20091;-59
2023/05/04 02:02:04;;;;;;;0.90;0.90;;;;;;;11.41;88.77;97240.28;5006770;28;20050;-60
2023/05/04 02:04:31;;;;;;;0.90;0.90;;;;;;;11.45;88.00;97232.03;5006657;28;20050;-60
2023/05/04 02:06:57;;;;;;;1.00;1.00;;;;;;;11.77;86.47;97263.91;5007035;28;20120;-61
2023/05/04 02:09:25;;;;;;;0.90;0.90;;;;;;;11.82;86.65;97271.91;5006883;28;20061;-60
2023/05/04 02:11:51;;;;;;;0.90;0.90;;;;;;;11.80;86.30;97246.50;5005316;28;20236;-60
2023/05/04 02:14:18;;;;;;;1.00;1.00;;;;;;;11.90;87.19;97254.22;5005699;28;20054;-60
2023/05/04 02:16:44;;;;;;;1.00;1.00;;;;;;;11.92;87.46;97265.72;5006732;28;20054;-61
2023/05/04 02:19:11;;;;;;;0.90;0.90;;;;;;;11.91;87.86;97247.47;5006422;28;20046;-60
2023/05/04 02:21:40;;;;;;;1.00;1.00;;;;;;;11.74;88.00;97253.56;5006393;28;20418;-63
2023/05/04 02:24:07;;;;;;;1.00;1.00;;;;;;;11.73;87.96;97229.72;5004428;28;20050;-60
2023/05/04 02:26:35;;;;;;;1.00;1.00;;;;;;;11.72;88.80;97222.59;5005808;28;20555;-59
2023/05/04 02:29:02;;;;;;;1.00;1.00;;;;;;;11.79;87.90;97245.69;5006074;28;20050;-60
2023/05/04 02:31:29;;;;;;;0.90;0.90;;;;;;;11.79;87.16;97251.25;5006294;28;20112;-60
2023/05/04 02:33:55;;;;;;;0.80;0.80;;;;;;;11.64;88.69;97234.75;5005724;28;20049;-60
2023/05/04 02:36:22;;;;;;;1.00;1.00;;;;;;;11.76;89.15;97245.66;5004951;28;20054;-60
2023/05/04 02:38:50;;;;;;;1.00;1.00;;;;;;;11.81;88.38;97237.00;5005338;28;20086;-60
2023/05/04 02:41:16;;;;;;;0.90;0.90;;;;;;;11.58;88.11;97222.34;5003657;28;20046;-63
2023/05/04 02:43:43;;;;;;;0.90;0.90;;;;;;;11.75;87.80;97246.81;5004979;28;20104;-60
2023/05/04 02:46:10;;;;;;;0.95;0.95;;;;;;;11.58;87.73;97244.53;5005370;28;20491;-61
2023/05/04 02:48:36;;;;;;;0.90;0.90;;;;;;;11.64;88.22;97238.34;5003455;28;20054;-60
2023/05/04 02:51:05;;;;;;;0.90;0.90;;;;;;;11.68;86.93;97247.50;5004782;28;20418;-61
2023/05/04 02:53:31;;;;;;;0.88;0.88;;;;;;;11.45;87.88;97240.34;5004796;28;20050;-59
2023/05/04 02:55:58;;;;;;;0.90;0.90;;;;;;;11.17;88.78;97206.59;5005071;28;20594;-62
2023/05/04 02:58:25;;;;;;;1.00;1.00;;;;;;;11.41;89.24;97270.00;5005722;28;20085;-59
2023/05/04 03:00:54;;;;;;;0.90;0.90;;;;;;;11.33;90.41;97282.16;5004846;28;20053;-59
2023/05/04 03:03:21;;;;;;;0.85;0.85;;;;;;;11.25;89.96;97280.41;5005555;28;20050;-60
2023/05/04 03:05:48;;;;;;;0.90;0.90;;;;;;;10.82;90.83;97272.47;5005458;28;20168;-60
2023/05/04 03:08:14;;;;;;;0.90;0.90;;;;;;;10.64;90.68;97234.13;5005712;28;20143;-60
2023/05/04 03:10:41;;;;;;;0.80;0.80;;;;;;;11.06;90.74;97284.03;5005337;28;20054;-60
2023/05/04 03:13:08;;;;;;;0.90;0.90;;;;;;;11.02;90.22;97282.38;5003884;28;20057;-59
2023/05/04 03:15:34;;;;;;;0.85;0.85;;;;;;;11.14;90.06;97284.97;5015368;28;20428;-59
2023/05/04 03:18:01;;;;;;;0.90;0.90;;;;;;;10.25;89.23;97143.97;5025107;28;20077;-59
2023/05/04 03:20:28;;;;;;;0.90;0.90;;;;;;;11.16;89.34;97296.50;5025043;28;20057;-60
2023/05/04 03:22:54;;;;;;;0.90;0.90;;;;;;;10.68;89.12;97212.81;5025134;28;20102;-62
2023/05/04 03:25:21;;;;;;;0.80;0.80;;;;;;;11.00;88.72;97235.59;5024692;28;20045;-60
2023/05/04 03:27:47;;;;;;;0.85;0.85;;;;;;;11.32;89.70;97289.66;5024983;28;20131;-62
2023/05/04 03:30:14;;;;;;;0.95;0.95;;;;;;;11.25;88.50;97277.66;5024251;28;20108;-59
2023/05/04 03:32:41;;;;;;;0.90;0.90;;;;;;;11.35;88.11;97307.56;5011594;28;20050;-62
2023/05/04 03:35:08;;;;;;;0.90;0.90;;;;;;;11.47;88.70;97310.13;5005063;28;20050;-60
2023/05/04 03:37:34;;;;;;;0.90;0.90;;;;;;;11.04;87.17;97219.03;5005450;28;20060;-61
2023/05/04 03:40:02;;;;;;;0.90;0.90;;;;;;;11.16;87.07;97243.81;5005005;28;20553;-60
2023/05/04 03:42:29;;;;;;;0.90;0.90;;;;;;;11.64;87.44;97309.66;5004679;28;20631;-61
2023/05/04 03:44:55;;;;;;;0.90;0.90;;;;;;;11.70;87.59;97319.28;5004786;28;20082;-60
2023/05/04 03:47:22;;;;;;;0.80;0.80;;;;;;;11.77;87.54;97319.41;5004848;28;20054;-60
2023/05/04 03:49:48;;;;;;;0.90;0.90;;;;;;;11.41;86.99;97251.38;5009127;28;20119;-60
2023/05/04 03:52:15;;;;;;;1.00;1.00;;;;;;;11.38;86.94;97240.25;5024329;28;20084;-60
2023/05/04 03:54:41;;;;;;;0.90;0.90;;;;;;;11.84;88.21;97325.06;5023810;28;20053;-60
2023/05/04 03:57:08;;;;;;;1.00;1.00;;;;;;;11.89;88.09;97321.97;5024421;28;20282;-61
2023/05/04 03:59:35;;;;;;;1.00;1.00;;;;;;;11.68;87.98;97271.69;5024207;28;20076;-59
2023/05/04 04:02:02;;;;;;;0.90;0.90;;;;;;;11.02;87.20;97160.41;4989823;28;20154;-59
2023/05/04 04:04:28;;;;;;;0.93;0.93;;;;;;;12.05;86.69;97308.75;4984772;28;20060;-62
2023/05/04 04:06:55;;;;;;;1.10;1.10;;;;;;;12.23;85.02;97329.28;4983195;28;20052;-60
2023/05/04 04:09:22;;;;;;;1.00;1.00;;;;;;;12.11;85.03;97332.25;4984910;28;20054;-61
2023/05/04 04:11:48;;;;;;;1.00;1.00;;;;;;;12.29;84.25;97330.56;4985159;28;20053;-59
2023/05/04 04:14:15;;;;;;;1.00;1.00;;;;;;;11.93;85.23;97290.31;4984750;28;20140;-61
2023/05/04 04:16:41;;;;;;;1.00;1.00;;;;;;;12.24;85.18;97328.09;4983062;28;20133;-59
2023/05/04 04:19:08;;;;;;;1.00;1.00;;;;;;;11.69;84.47;97226.13;4984878;28;20411;-61
2023/05/04 04:21:35;;;;;;;1.00;1.00;;;;;;;12.44;84.44;97321.22;4984291;28;20120;-59
2023/05/04 04:24:02;;;;;;;1.17;1.17;;;;;;;12.39;84.23;97302.13;4984868;28;20089;-61
2023/05/04 04:26:28;;;;;;;1.00;1.00;;;;;;;10.48;86.03;97003.56;4979350;28;20129;-59
2023/05/04 04:28:55;;;;;;;0.90;0.90;;;;;;;12.51;87.04;97326.09;4984350;28;20078;-59
2023/05/04 04:31:21;;;;;;;1.00;1.00;;;;;;;12.43;88.41;97325.19;4984716;28;20116;-59
2023/05/04 04:33:50;;;;;;;1.10;1.10;;;;;;;12.57;88.15;97319.03;4984443;28;20062;-60
2023/05/04 04:36:17;;;;;;;0.90;0.90;;;;;;;12.67;87.51;97319.19;4984794;28;20086;-60
2023/05/04 04:38:43;;;;;;;1.10;1.10;;;;;;;12.31;86.73;97233.78;4984842;28;20117;-61
2023/05/04 04:41:10;;;;;;;1.10;1.10;;;;;;;12.96;86.76;97321.13;4999548;28;20113;-58
2023/05/04 04:43:37;;;;;;;1.10;1.10;;;;;;;13.22;85.04;97317.50;4983048;28;20058;-59
2023/05/04 04:46:04;;;;;;;1.00;1.00;;;;;;;13.41;84.13;97314.50;4982927;28;20100;-62
2023/05/04 04:48:30;;;;;;;1.10;1.10;;;;;;;13.57;83.07;97313.09;4983378;28;20286;-59
2023/05/04 04:50:57;;;;;;;1.10;1.10;;;;;;;13.72;80.27;97318.81;4995507;28;20496;-60
2023/05/04 04:53:24;;;;;;;1.10;1.10;;;;;;;13.83;80.05;97320.47;5002825;28;20054;-60
2023/05/04 04:55:51;;;;;;;1.13;1.13;;;;;;;13.73;79.55;97320.41;4999162;28;20089;-63
2023/05/04 04:58:18;;;;;;;1.30;1.30;;;;;;;13.62;79.74;97298.81;4990378;28;20081;-61
2023/05/04 05:00:46;;;;;;;1.00;1.00;;;;;;;13.92;79.16;97322.94;5003766;28;20573;-62
2023/05/04 05:03:13;;;;;;;1.08;1.08;;;;;;;14.04;78.82;97392.28;5003965;28;20058;-61
2023/05/04 05:05:39;;;;;;;1.20;1.20;;;;;;;14.07;78.23;97324.69;5003930;28;20046;-61
2023/05/04 05:08:06;;;;;;;1.20;1.20;;;;;;;14.15;77.75;97326.31;5019066;28;20133;-61
2023/05/04 05:10:33;;;;;;;1.20;1.20;;;;;;;14.27;77.59;97328.84;5003779;28;20406;-62
2023/05/04 05:13:00;;;;;;;1.30;1.30;;;;;;;13.69;75.42;97257.13;5003855;28;20113;-60
2023/05/04 05:15:26;;;;;;;1.38;1.38;;;;;;;13.62;74.93;97329.44;5003965;28;20129;-60
2023/05/04 05:17:53;;;;;;;1.10;1.10;;;;;;;12.63;80.35;97335.00;5002229;28;20062;-61
2023/05/04 05:20:20;;;;;;;1.00;1.00;;;;;;;12.75;80.30;97333.97;5003955;28;20137;-61
2023/05/04 05:22:47;;;;;;;1.20;1.20;;;;;;;13.36;79.30;97337.94;5004291;28;20062;-60
2023/05/04 05:25:13;;;;;;;1.15;1.15;;;;;;;13.51;78.64;97320.19;5021499;28;20108;-62
2023/05/04 05:27:40;;;;;;;1.10;1.10;;;;;;;13.78;76.51;97342.31;5007102;28;20548;-61
2023/05/04 05:30:07;;;;;;;1.13;1.13;;;;;;;13.50;76.94;97304.69;5007715;28;20463;-60
2023/05/04 05:32:33;;;;;;;1.10;1.10;;;;;;;13.62;76.03;97343.34;5007236;28;20497;-61
2023/05/04 05:35:00;;;;;;;1.13;1.13;;;;;;;13.52;77.45;97349.63;5007085;28;20068;-61
2023/05/04 05:37:27;;;;;;;1.08;1.08;;;;;;;13.46;75.83;97289.94;5007094;28;20057;-62
2023/05/04 05:39:53;;;;;;;1.10;1.10;;;;;;;14.04;75.02;97342.13;5005688;28;20112;-60
2023/05/04 05:42:20;;;;;;;1.15;1.15;;;;;;;13.24;74.17;97270.63;5006866;28;20136;-61
2023/05/04 05:44:47;;;;;;;1.15;1.15;;;;;;;13.20;75.05;97264.22;5000211;28;20590;-63
2023/05/04 05:47:13;;;;;;;1.20;1.20;;;;;;;11.46;73.96;96914.66;5013542;28;20544;-63
2023/05/04 05:49:41;;;;;;;1.20;1.20;;;;;;;14.64;72.99;97351.75;5005267;28;20077;-62
2023/05/04 05:52:12;;;;;;;1.23;1.23;;;;;;;13.81;74.53;97338.75;4985583;28;20050;-59
2023/05/04 05:54:40;;;;;;;1.10;1.10;;;;;;;12.17;78.85;97233.56;4998010;28;20058;-63
2023/05/04 05:57:06;;;;;;;1.10;1.10;;;;;;;12.61;80.41;97348.50;4998674;28;20050;-62
2023/05/04 05:59:33;;;;;;;0.98;0.98;;;;;;;12.79;81.63;97360.63;5005441;28;20045;-63
2023/05/04 06:02:00;;;;;;;1.20;1.20;;;;;;;13.35;77.86;97355.81;5006118;28;20504;-63
2023/05/04 06:04:26;;;;;;;1.10;1.10;;;;;;;13.17;76.91;97254.66;5002374;28;20435;-62
2023/05/04 06:06:53;;;;;;;1.17;1.17;;;;;;;13.86;77.08;97341.19;4995920;28;20062;-63
2023/05/04 06:09:20;;;;;;;1.10;1.10;;;;;;;14.16;75.73;97334.31;4994129;28;20046;-64
2023/05/04 06:11:46;;;;;;;1.20;1.20;;;;;;;14.31;74.33;97335.22;4989897;28;20829;-61
2023/05/04 06:14:13;;;;;;;1.20;1.20;;;;;;;13.72;74.68;97236.06;4994291;28;20084;-64
2023/05/04 06:16:39;;;;;;;1.20;1.20;;;;;;;14.36;74.07;97326.50;4989966;28;20058;-64
2023/05/04 06:19:06;;;;;;;1.40;1.40;;;;;;;13.83;73.35;97194.41;5003011;28;20077;-73
2023/05/04 06:21:33;;;;;;;1.27;1.27;;;;;;;14.75;72.62;97349.84;5003648;28;20049;-70
2023/05/04 06:24:00;;;;;;;1.30;1.30;;;;;;;13.61;73.60;97319.50;5006112;28;20077;-65
2023/05/04 06:26:27;;;;;;;1.20;1.20;;;;;;;13.83;75.73;97353.13;5005134;28;20524;-61
2023/05/04 06:28:53;;;;;;;1.20;1.20;;;;;;;14.14;74.52;97352.56;4999829;28;20062;-67
2023/05/04 06:31:20;;;;;;;1.30;1.30;;;;;;;13.42;75.76;97264.03;4988758;28;20514;-61
2023/05/04 06:33:47;;;;;;;1.20;1.20;;;;;;;14.44;73.99;97353.22;4988174;28;20046;-64
2023/05/04 06:36:13;;;;;;;1.20;1.20;;;;;;;12.95;73.00;97108.22;5017481;28;20568;-60
2023/05/04 06:38:40;;;;;;;1.13;1.13;;;;;;;14.70;72.91;97358.59;4998115;28;20101;-61
2023/05/04 06:41:07;;;;;;;1.30;1.30;;;;;;;14.90;71.47;97355.13;4984561;28;20090;-65
2023/05/04 06:43:33;;;;;;;1.20;1.20;;;;;;;14.53;71.57;97309.09;4998299;28;20079;-63
2023/05/04 06:46:01;;;;;;;1.20;1.20;;;;;;;14.28;72.60;97313.69;4998696;28;20053;-66
2023/05/04 06:48:29;;;;;;;1.30;1.30;;;;;;;14.20;72.71;97261.88;4994701;28;20499;-63
2023/05/04 06:50:56;;;;;;;1.20;1.20;;;;;;;13.85;74.03;97272.78;5004383;28;20161;-74
2023/05/04 06:53:23;;;;;;;1.30;1.30;;;;;;;13.02;73.70;97101.94;5004845;28;20080;-65
2023/05/04 06:55:50;;;;;;;1.20;1.20;;;;;;;13.62;72.90;97218.09;4998174;28;20282;-66
2023/05/04 06:58:20;;;;;;;1.48;1.48;;;;;;;14.66;73.48;97352.19;4993472;28;20045;-64
2023/05/04 07:00:47;;;;;;;1.38;1.38;;;;;;;14.31;73.60;97288.66;4991667;28;20054;-66
2023/05/04 07:03:14;;;;;;;1.38;1.38;;;;;;;14.63;73.32;97358.53;4989254;28;20042;-63
2023/05/04 07:05:41;;;;;;;1.40;1.40;;;;;;;13.87;73.53;97220.25;4993241;28;20492;-62
2023/05/04 07:08:08;;;;;;;1.40;1.40;;;;;;;14.39;73.91;97283.91;4998152;28;20521;-62
2023/05/04 07:10:35;;;;;;;1.20;1.20;;;;;;;14.68;74.74;97355.38;5003682;28;20056;-65
2023/05/04 07:13:02;;;;;;;1.20;1.20;;;;;;;14.10;74.39;97263.41;4996330;28;20093;-64
2023/05/04 07:15:29;;;;;;;1.23;1.23;;;;;;;14.85;74.28;97351.91;4998778;28;20452;-64
2023/05/04 07:17:55;;;;;;;1.20;1.20;;;;;;;14.78;74.09;97354.63;5004765;28;20057;-60
2023/05/04 07:20:22;;;;;;;1.40;1.40;;;;;;;14.68;74.08;97355.38;4987311;28;20054;-63
2023/05/04 07:22:55;;;;;;;1.27;1.27;;;;;;;14.08;75.25;97284.47;4985339;28;20511;-68
2023/05/04 07:25:25;;;;;;;1.30;1.30;;;;;;;14.39;76.32;97345.22;4989894;28;20521;-66
2023/05/04 07:27:53;;;;;;;1.50;1.50;;;;;;;14.42;75.97;97361.97;5000755;28;20145;-63
2023/05/04 07:30:20;;;;;;;1.10;1.10;;;;;;;14.51;75.85;97367.22;5002646;28;20050;-65
2023/05/04 07:32:47;;;;;;;1.35;1.35;;;;;;;13.97;76.57;97311.47;4997478;28;20153;-67
2023/05/04 07:35:14;;;;;;;1.20;1.20;;;;;;;14.00;77.37;97335.75;4993448;28;20540;-69
2023/05/04 07:37:40;;;;;;;1.33;1.33;;;;;;;13.09;77.22;97180.66;4992815;28;20843;-63
2023/05/04 07:40:08;;;;;;;1.20;1.20;;;;;;;14.29;77.54;97373.84;4986879;28;20544;-62
2023/05/04 07:42:35;;;;;;;1.17;1.17;;;;;;;14.14;77.55;97335.88;4996105;28;20041;-60
2023/05/04 07:45:02;;;;;;;1.10;1.10;;;;;;;14.45;77.69;97374.34;5001675;28;20528;-62
2023/05/04 07:47:29;;;;;;;1.25;1.25;;;;;;;12.68;77.30;97142.91;4998730;28;20085;-65
2023/05/04 07:49:55;;;;;;;1.25;1.25;;;;;;;13.75;78.18;97312.47;5001311;28;20059;-70
2023/05/04 07:52:22;;;;;;;1.13;1.13;;;;;;;13.63;79.14;97302.41;4993582;28;20046;-64
2023/05/04 07:54:52;;;;;;;1.30;1.30;;;;;;;13.16;78.83;97230.81;4989783;28;20050;-62
2023/05/04 07:57:20;;;;;;;1.20;1.20;;;;;;;13.69;78.67;97296.09;5002286;28;20421;-63
2023/05/04 07:59:47;;;;;;;1.10;1.10;;;;;;;14.20;78.55;97374.13;4985119;28;20054;-62
2023/05/04 08:02:14;;;;;;;1.33;1.33;;;;;;;14.32;77.86;97381.44;5000089;28;20049;-63
2023/05/04 08:04:41;;;;;;;1.30;1.30;;;;;;;13.56;77.36;97227.22;5004358;28;20053;-64
2023/05/04 08:07:07;;;;;;;1.15;1.15;;;;;;;14.73;76.34;97380.13;4996621;28;20058;-62
2023/05/04 08:09:34;;;;;;;1.33;1.33;;;;;;;14.52;75.74;97375.22;5004038;28;20060;-63
2023/05/04 08:12:03;;;;;;;1.30;1.30;;;;;;;13.18;78.45;97300.75;5004281;28;20060;-62
2023/05/04 08:14:29;;;;;;;1.10;1.10;;;;;;;13.04;81.17;97355.44;5001941;28;20065;-65
2023/05/04 08:16:56;;;;;;;1.20;1.20;;;;;;;12.09;83.77;97231.88;5002764;28;20631;-70
2023/05/04 08:19:23;;;;;;;1.00;1.00;;;;;;;12.33;86.73;97391.72;4999600;28;20050;-61
2023/05/04 08:21:50;;;;;;;1.10;1.10;;;;;;;11.18;85.38;97073.16;4985193;28;20058;-62
2023/05/04 08:24:17;;;;;;;1.10;1.10;;;;;;;13.24;82.06;97315.13;4985422;28;20490;-61
2023/05/04 08:26:44;;;;;;;1.13;1.13;;;;;;;13.80;81.18;97365.03;4990175;28;20050;-67
2023/05/04 08:29:30;;;;;;;1.20;1.20;;;;;;;13.87;80.36;97376.22;4983925;28;20062;-59
2023/05/04 08:31:57;;;;;;;1.20;1.20;;;;;;;13.84;79.17;97299.81;4991799;28;20065;-67
2023/05/04 08:34:25;;;;;;;1.27;1.27;;;;;;;14.25;79.51;97364.63;4990420;28;20053;-61
2023/05/04 08:36:52;;;;;;;1.10;1.10;;;;;;;13.44;79.40;97295.09;5004469;28;20498;-65
2023/05/04 08:39:19;;;;;;;1.10;1.10;;;;;;;14.19;80.51;97363.38;4983867;28;20058;-64
2023/05/04 08:41:45;;;;;;;1.20;1.20;;;;;;;14.49;78.52;97341.72;4988577;28;20500;-63
2023/05/04 08:44:12;;;;;;;1.20;1.20;;;;;;;13.33;79.39;97276.66;4986768;28;20512;-61
2023/05/04 08:46:39;;;;;;;1.08;1.08;;;;;;;14.31;78.86;97363.09;4996563;28;20185;-63
2023/05/04 08:49:06;;;;;;;1.30;1.30;;;;;;;14.03;78.12;97257.00;4982997;28;20065;-59
2023/05/04 08:51:35;;;;;;;1.40;1.40;;;;;;;14.19;76.95;97260.28;4987970;28;20109;-61
2023/05/04 08:54:08;;;;;;;1.10;1.10;;;;;;;14.56;77.46;97364.06;4993603;28;20049;-59
2023/05/04 08:56:35;;;;;;;1.20;1.20;;;;;;;14.83;76.37;97362.63;5000440;28;20062;-61
2023/05/04 08:59:02;;;;;;;1.38;1.38;;;;;;;15.46;74.60;97348.19;4984779;28;20046;-58
2023/05/04 09:01:31;;;;;;;1.27;1.27;;;;;;;13.85;78.36;97289.50;5005807;28;20537;-63
2023/05/04 09:04:01;;;;;;;1.23;1.23;;;;;;;14.50;78.57;97371.19;5004660;28;20521;-62
2023/05/04 09:06:28;;;;;;;1.30;1.30;;;;;;;14.92;75.43;97304.53;5002457;28;20140;-65
2023/05/04 09:08:55;;;;;;;1.33;1.33;;;;;;;14.90;75.69;97357.91;5006553;28;20061;-60
2023/05/04 09:11:22;;;;;;;1.60;1.60;;;;;;;14.46;75.67;97292.34;4992406;28;20062;-58
2023/05/04 09:13:48;;;;;;;1.30;1.30;;;;;;;14.47;79.45;97349.66;5007567;28;20112;-60
2023/05/04 09:16:15;;;;;;;1.30;1.30;;;;;;;14.99;77.66;97338.00;5006587;28;20111;-60
2023/05/04 09:18:43;;;;;;;1.33;1.33;;;;;;;15.49;74.38;97348.19;5007656;28;20495;-60
2023/05/04 09:21:10;;;;;;;1.40;1.40;;;;;;;16.26;71.65;97342.72;4997515;28;20085;-62
2023/05/04 09:23:48;;;;;;;1.40;1.40;;;;;;;16.11;71.19;97329.13;4987548;28;20137;-69
2023/05/04 09:26:25;;;;;;;1.50;1.50;;;;;;;16.87;68.95;97346.22;4987739;28;20051;-67
2023/05/04 09:28:51;;;;;;;1.60;1.60;;;;;;;17.67;65.62;97339.50;5001165;28;20119;-59
2023/05/04 09:31:18;;;;;;;1.85;1.85;;;;;;;17.70;63.82;97243.44;4994470;28;20049;-61
2023/05/04 09:33:45;;;;;;;2.00;2.00;;;;;;;18.62;62.27;97322.72;4991047;28;20048;-59
2023/05/04 09:36:14;;;;;;;1.67;1.67;;;;;;;17.36;64.99;97315.22;4994674;28;20116;-58
2023/05/04 09:38:41;;;;;;;1.73;1.73;;;;;;;17.93;64.34;97316.50;4991617;28;20085;-57
2023/05/04 09:41:08;;;;;;;2.00;2.00;;;;;;;18.00;62.22;97313.66;4999608;28;20131;-58
2023/05/04 09:43:40;;;;;;;2.10;2.10;;;;;;;18.50;60.85;97314.03;4989640;28;20129;-62
2023/05/04 09:46:18;;;;;;;1.80;1.80;;;;;;;17.94;61.41;97191.97;4986805;28;20105;-59
2023/05/04 09:48:52;;;;;;;1.95;1.95;;;;;;;18.67;59.76;97279.41;4992133;28;20042;-61
2023/05/04 09:51:21;;;;;;;1.90;1.90;;;;;;;19.08;59.49;97314.59;5001582;28;20516;-60
2023/05/04 09:53:49;;;;;;;2.00;2.00;;;;;;;19.13;58.26;97313.34;5004066;28;20068;-67
2023/05/04 09:56:31;;;;;;;2.20;2.20;;;;;;;19.36;58.62;97305.84;5005802;28;20490;-61
2023/05/04 09:58:58;;;;;;;1.90;1.90;;;;;;;19.46;57.84;97304.91;5004606;28;20136;-59
2023/05/04 10:01:28;;;;;;;2.05;2.05;;;;;;;19.28;58.59;97309.97;5004709;28;20061;-61
2023/05/04 10:03:55;;;;;;;1.92;1.92;;;;;;;19.21;59.10;97304.41;5003210;28;20115;-60
2023/05/04 10:06:23;;;;;;;2.10;2.10;;;;;;;18.94;59.51;97295.13;5004435;28;20163;-61
2023/05/04 10:08:50;;;;;;;1.90;1.90;;;;;;;19.08;59.20;97289.31;5003097;28;20054;-60
2023/05/04 10:11:19;;;;;;;1.73;1.73;;;;;;;18.83;59.56;97277.59;5005046;28;20343;-61
2023/05/04 10:13:48;;;;;;;1.98;1.98;;;;;;;18.58;60.33;97302.34;5005623;28;20056;-60
2023/05/04 10:16:40;;;;;;;2.00;2.00;;;;;;;18.56;60.41;97282.31;5006432;28;20058;-59
2023/05/04 10:19:23;;;;;;;2.00;2.00;;;;;;;18.29;61.66;97235.69;5005660;28;20053;-60
2023/05/04 10:22:12;;;;;;;2.00;2.00;;;;;;;18.86;60.67;97306.84;5006093;28;20072;-61
2023/05/04 10:24:56;;;;;;;1.85;1.85;;;;;;;19.08;59.98;97294.94;5006316;28;20053;-60
2023/05/04 10:27:45;;;;;;;1.80;1.80;;;;;;;18.99;59.92;97294.66;5005652;28;20295;-61
2023/05/04 10:30:15;;;;;;;2.20;2.20;;;;;;;19.04;59.13;97249.28;4991874;28;20054;-59
2023/05/04 10:32:42;;;;;;;2.00;2.00;;;;;;;19.30;56.65;97167.06;4996549;28;20139;-62
2023/05/04 10:35:09;;;;;;;2.35;2.35;;;;;;;20.30;56.41;97285.16;4997282;28;20424;-59
2023/05/04 10:37:36;;;;;;;2.20;2.20;;;;;;;20.14;55.81;97282.25;4993050;28;20049;-62
2023/05/04 10:40:04;;;;;;;1.73;1.73;;;;;;;19.53;56.47;97259.06;4990957;28;20050;-64
2023/05/04 10:42:43;;;;;;;2.47;2.40;;;;;;;20.04;56.59;97277.56;4989830;28;20073;-62
2023/05/04 10:45:11;;;;;;;2.03;2.03;;;;;;;20.09;55.95;97277.06;4998609;28;20042;-65
2023/05/04 10:47:39;;;;;;;2.08;2.08;;;;;;;19.70;54.99;97184.09;5003482;28;20075;-62
2023/05/04 10:50:13;;;;;;;2.53;2.42;;;;;;;20.00;54.79;97198.06;5004409;28;20117;-67
2023/05/04 10:52:48;;;;;;;2.70;2.60;;;;;;;20.39;55.04;97265.72;5003534;28;20054;-60
2023/05/04 10:55:16;;;;;;;2.15;2.15;;;;;;;20.72;53.42;97250.63;5000316;28;20598;-57
2023/05/04 10:57:50;;;;;;;2.00;2.00;;;;;;;20.80;54.38;97257.72;4989604;28;20055;-65
2023/05/04 11:00:17;;;;;;;2.20;2.20;;;;;;;20.99;53.80;97265.41;4999069;28;20054;-62
2023/05/04 11:02:48;;;;;;;2.30;2.30;;;;;;;21.35;52.95;97260.59;4991322;28;20049;-62
2023/05/04 11:05:19;;;;;;;2.28;2.28;;;;;;;21.36;52.44;97256.53;4996581;28;20201;-60
2023/05/04 11:07:49;;;;;;;2.33;2.30;;;;;;;21.54;52.27;97244.88;4985799;28;20137;-58
2023/05/04 11:10:21;;;;;;;2.00;2.00;;;;;;;21.30;51.21;97176.56;4985898;28;20056;-61
2023/05/04 11:12:47;;;;;;;2.60;2.50;;;;;;;21.83;50.27;97234.56;5001838;28;20481;-63
2023/05/04 11:15:14;;;;;;;2.47;2.38;;;;;;;21.74;49.94;97229.50;5005307;28;20072;-60
2023/05/04 11:17:53;;;;;;;2.15;2.15;;;;;;;20.68;51.50;97176.69;5005163;28;20580;-59
2023/05/04 11:20:25;;;;;;;2.40;2.30;;;;;;;20.90;52.67;97240.59;5020104;28;20185;-62
2023/05/04 11:22:53;;;;;;;2.30;2.30;;;;;;;21.06;52.25;97192.00;5004434;28;20505;-59
2023/05/04 11:25:29;;;;;;;2.30;2.30;;;;;;;19.49;51.59;96915.50;5003849;28;20054;-60
2023/05/04 11:27:57;;;;;;;2.25;2.25;;;;;;;21.79;49.89;97206.44;5004339;28;20433;-60
2023/05/04 11:30:34;;;;;;;2.35;2.33;;;;;;;22.48;49.21;97229.66;5005173;28;20057;-60
2023/05/04 11:33:11;;;;;;;2.72;2.63;;;;;;;22.68;48.96;97227.53;5004993;28;20535;-63
2023/05/04 11:35:38;;;;;;;2.35;2.33;;;;;;;22.57;48.55;97179.03;5003739;28;20575;-59
2023/05/04 11:38:06;;;;;;;2.90;2.80;;;;;;;22.67;48.27;97220.31;5004575;28;20058;-63